< < Back
Terminal Aerodrome Forecast


Current Version              Previous Versions:   1  2  3  4  5  6  7  8  9  

Terminal Aerodrome Forecast

403
FTUS42 KGSP 292330
TAFHKY
TAF
KHKY 292330Z 3000/3024 08004KT P6SM FEW060 BKN250
     FM300600 36003KT P6SM SCT050 BKN250
     FM301500 07005KT P6SM SCT060 BKN250=

Latest METAR

520
SAUS70 KWBC 301300 RRG
MTRHKY
METAR KHKY 301253Z 00000KT 10SM CLR 23/21 A3017 RMK AO2 SLP193
T02330206


USA.gov is the U.S. government's official web portal to all federal, state and local government web resources and services.